Edinburgh, IN (46124)

4:42 AM EST on December 03, 2016 (GMT -0500)
Timbergate Golf Course | | Change Station

Elev 673 ft 39.36 °N, 85.95 °W | Updated 8 minutes ago

Overcast
Overcast
38.1 °F
Feels Like 38 °F
N
1.0
Wind Variable Wind from WNW
Gusts 4.0 mph

Today
High -- | Low -- °F
--% Chance of Precip.
Yesterday
High -- | Low -- °F
Precip. -- in
Pressure 30.35 in
Visibility 9.0 miles
Clouds Overcast 3500 ft
Windchill 38 °F
Dew Point 33 °F
Humidity 83%
Rainfall 0.00 in
Snow Depth Not available.
7:47 AM 5:20 PM
Waxing Crescent, 14% visible
METAR KGEZ 030853Z AUTO 25005KT 9SM OVC035 03/01 A3033 RMK AO2 SLP277 T00330011 53008
Pressure 30.35 in
Visibility 9.0 miles
Clouds Overcast 3500 ft
Windchill 38 °F
Dew Point 33 °F
Humidity 83%
Rainfall 0.00 in
Snow Depth Not available.
7:47 AM 5:20 PM
Waxing Crescent, 14% visible
METAR KGEZ 030853Z AUTO 25005KT 9SM OVC035 03/01 A3033 RMK AO2 SLP277 T00330011 53008

10-Day Weather Forecast

Almanac

Astronomy

Dec. 03, 2016 Rise Set
Actual Time
Civil Twilight
Nautical Twilight
Astronomical Twilight
Moon
Length of Visible Light
Length of Day
Tomorrow will be .
, % of the Moon is Illuminated

Today's Extremes

State Highs State Lows

Community

WunderPhotos

Upload Photos

1,955,434 photos uploaded!

WunderBlog® & News

Nearby

Air Quality

  Air Quality AQ Index Pollutant
Not available.

Snow Depth

Station Depth Elevation

Earthquake Activity

City Distance Mag. Time & Date
Minimum magnitude displayed is 2.5.

Coastal Water Temperatures

Place Temperature

Stations

Nearby Weather Stations

Station Location Temp. Windchill Dew Point Humidity Wind Precip. Elev Updated Type
                   

Watches & Warnings

There are currently no watches in effect.